Time;durP1;ratioP1;P1;durP2;ratioP2;P2;SDS_P1;SDS_P2;PMS_P1;PMS_P2;Temp;Humidity;BMP_temperature;BMP_pressure;BME280_temperature;BME280_humidity;BME280_pressure;Samples;Min_cycle;Max_cycle;Signal;HPM_P1;HPM_P2
2022/06/07 00:02:09;;;;;;;0.50;0.20;;;14.50;99.90;;;;;;5015561;28;20413;-88
2022/06/07 00:04:36;;;;;;;0.50;0.20;;;14.50;99.90;;;;;;4996425;28;20429;-83
2022/06/07 00:07:02;;;;;;;0.50;0.20;;;14.40;99.90;;;;;;4996904;28;20421;-87
2022/06/07 00:09:29;;;;;;;0.60;0.20;;;14.30;99.90;;;;;;4998090;28;20423;-89
2022/06/07 00:11:55;;;;;;;0.80;0.20;;;14.30;99.90;;;;;;5015104;28;20903;-87
2022/06/07 00:14:20;;;;;;;0.90;0.20;;;14.30;99.90;;;;;;5022052;28;20457;-86
2022/06/07 00:16:46;;;;;;;0.60;0.20;;;14.40;99.90;;;;;;5016510;28;20539;-86
2022/06/07 00:19:11;;;;;;;1.13;0.40;;;14.40;99.90;;;;;;5015187;28;20213;-86
2022/06/07 00:21:37;;;;;;;0.63;0.20;;;14.30;99.90;;;;;;5015277;28;20178;-86
2022/06/07 00:24:04;;;;;;;0.80;0.20;;;14.30;99.90;;;;;;4997852;28;20183;-83
2022/06/07 00:26:31;;;;;;;0.63;0.20;;;14.20;99.90;;;;;;5015148;28;20538;-85
2022/06/07 00:28:57;;;;;;;0.80;0.20;;;14.30;99.90;;;;;;5016108;28;20402;-89
2022/06/07 00:31:22;;;;;;;0.50;0.30;;;14.20;99.90;;;;;;5015925;28;20543;-89
2022/06/07 00:33:48;;;;;;;0.60;0.20;;;14.20;99.90;;;;;;5015462;28;20997;-90
2022/06/07 00:36:14;;;;;;;1.13;0.20;;;14.20;99.90;;;;;;5015167;28;20630;-85
2022/06/07 00:38:43;;;;;;;1.33;0.67;;;14.10;99.90;;;;;;5015767;28;20207;-87
2022/06/07 00:41:09;;;;;;;0.60;0.20;;;14.20;99.90;;;;;;5014965;28;20452;-83
2022/06/07 00:43:36;;;;;;;0.80;0.50;;;14.10;99.90;;;;;;5014687;28;20429;-85
2022/06/07 00:46:06;;;;;;;0.90;0.40;;;14.10;99.90;;;;;;5014931;28;20905;-85
2022/06/07 00:48:32;;;;;;;0.67;0.20;;;14.00;99.90;;;;;;5014657;28;20405;-85
2022/06/07 00:51:10;;;;;;;0.53;0.43;;;14.00;99.90;;;;;;4997176;28;20424;-85
2022/06/07 00:53:36;;;;;;;1.80;0.30;;;13.90;99.90;;;;;;5014685;28;20645;-89
2022/06/07 00:56:03;;;;;;;0.50;0.23;;;13.80;99.90;;;;;;5014221;28;20480;-88
2022/06/07 00:58:30;;;;;;;0.60;0.20;;;13.80;99.90;;;;;;5014322;28;20976;-84
2022/06/07 01:00:57;;;;;;;0.90;0.20;;;13.80;99.90;;;;;;4996998;28;20414;-84
2022/06/07 01:03:23;;;;;;;0.43;0.20;;;13.80;99.90;;;;;;5015822;28;20433;-91
2022/06/07 01:05:50;;;;;;;0.50;0.20;;;13.80;99.90;;;;;;5015415;28;20900;-88
2022/06/07 01:11:01;;;;;;;0.60;0.20;;;13.90;99.90;;;;;;5014568;28;20413;-83
2022/06/07 01:13:32;;;;;;;0.60;0.20;;;13.80;99.90;;;;;;5014471;28;20422;-90
2022/06/07 01:16:08;;;;;;;0.70;0.30;;;13.70;99.90;;;;;;5015145;28;20222;-85
2022/06/07 01:18:34;;;;;;;1.30;0.20;;;13.70;99.90;;;;;;5015546;28;20871;-86
2022/06/07 01:21:16;;;;;;;0.60;0.20;;;13.70;99.90;;;;;;5015525;28;20417;-86
2022/06/07 01:23:43;;;;;;;0.50;0.20;;;13.60;99.90;;;;;;5019127;28;20936;-83
2022/06/07 01:26:09;;;;;;;0.70;0.20;;;13.60;99.90;;;;;;5018711;28;20427;-84
2022/06/07 01:28:35;;;;;;;0.60;0.20;;;13.60;99.90;;;;;;5015455;28;20435;-84
2022/06/07 01:31:00;;;;;;;0.80;0.27;;;13.60;99.90;;;;;;5013980;28;20460;-83
2022/06/07 01:33:26;;;;;;;0.53;0.30;;;13.60;99.90;;;;;;5014090;28;20201;-83
2022/06/07 01:36:06;;;;;;;0.73;0.20;;;13.60;99.90;;;;;;5013850;28;20629;-83
2022/06/07 01:38:34;;;;;;;0.80;0.20;;;13.60;99.90;;;;;;5014152;28;20699;-84
2022/06/07 01:43:44;;;;;;;1.87;0.20;;;13.70;99.90;;;;;;5015413;28;20419;-88
2022/06/07 01:46:10;;;;;;;2.00;0.30;;;13.50;99.90;;;;;;5014168;28;20467;-84
2022/06/07 01:48:35;;;;;;;1.27;0.50;;;13.60;99.90;;;;;;5014411;28;20174;-83
2022/06/07 01:51:06;;;;;;;1.30;0.27;;;13.60;99.90;;;;;;5014384;28;20175;-90
2022/06/07 01:53:33;;;;;;;0.97;0.60;;;13.60;99.90;;;;;;5015724;28;20554;-84
2022/06/07 01:56:03;;;;;;;0.70;0.30;;;13.60;99.90;;;;;;5014125;28;20483;-88
2022/06/07 01:58:28;;;;;;;0.70;0.30;;;13.50;99.90;;;;;;5013790;28;20476;-84
2022/06/07 02:00:54;;;;;;;0.73;0.20;;;13.50;99.90;;;;;;5013536;28;20785;-83
2022/06/07 02:03:19;;;;;;;1.23;0.37;;;13.50;99.90;;;;;;5013716;28;20177;-84
2022/06/07 02:05:59;;;;;;;0.60;0.30;;;13.50;99.90;;;;;;5013730;28;20209;-84
2022/06/07 02:08:26;;;;;;;0.63;0.20;;;13.50;99.90;;;;;;5013939;28;20179;-86
2022/06/07 02:10:52;;;;;;;0.90;0.40;;;13.50;99.90;;;;;;5013585;28;20565;-90
2022/06/07 02:13:19;;;;;;;0.70;0.30;;;13.50;99.90;;;;;;5014150;28;20423;-85
2022/06/07 02:15:45;;;;;;;1.23;0.20;;;13.40;99.90;;;;;;5014129;28;20421;-84
2022/06/07 02:18:11;;;;;;;1.77;0.60;;;13.50;99.90;;;;;;5013205;28;20547;-88
2022/06/07 02:20:37;;;;;;;0.70;0.20;;;13.50;99.90;;;;;;5013062;28;20830;-83
2022/06/07 02:23:04;;;;;;;0.60;0.40;;;13.50;99.90;;;;;;5013855;28;20175;-89
2022/06/07 02:25:35;;;;;;;0.80;0.30;;;13.40;99.90;;;;;;5015941;28;20404;-83
2022/06/07 02:28:01;;;;;;;0.97;0.20;;;13.40;99.90;;;;;;5000177;28;20942;-82
2022/06/07 02:30:26;;;;;;;0.93;0.30;;;13.40;99.90;;;;;;5016706;28;20411;-82
2022/06/07 02:32:52;;;;;;;1.60;0.50;;;13.40;99.90;;;;;;5016789;28;20432;-82
2022/06/07 02:35:18;;;;;;;0.57;0.30;;;13.30;99.90;;;;;;5016816;28;20173;-82
2022/06/07 02:37:44;;;;;;;2.43;0.40;;;13.40;99.90;;;;;;5016729;28;20987;-83
2022/06/07 02:40:10;;;;;;;1.20;0.33;;;13.40;99.90;;;;;;5016736;28;20215;-84
2022/06/07 02:42:35;;;;;;;1.10;0.57;;;13.40;99.90;;;;;;5016323;28;20181;-82
2022/06/07 02:45:01;;;;;;;1.10;0.20;;;13.40;99.90;;;;;;5016651;28;20634;-82
2022/06/07 02:47:27;;;;;;;0.70;0.30;;;13.50;99.90;;;;;;5016655;28;20239;-82
2022/06/07 02:49:52;;;;;;;0.60;0.20;;;13.50;99.90;;;;;;5016582;28;20232;-84
2022/06/07 02:52:19;;;;;;;0.87;0.40;;;13.50;99.90;;;;;;5016766;28;20253;-82
2022/06/07 02:54:44;;;;;;;1.03;0.50;;;13.50;99.90;;;;;;5016488;28;20177;-82
2022/06/07 02:57:10;;;;;;;0.90;0.43;;;13.60;99.90;;;;;;5016332;28;20990;-82
2022/06/07 02:59:36;;;;;;;1.10;0.30;;;13.50;99.90;;;;;;4998714;28;20690;-84
2022/06/07 03:02:01;;;;;;;1.13;0.70;;;13.40;99.90;;;;;;5016333;28;20447;-84
2022/06/07 03:04:27;;;;;;;2.60;0.40;;;13.30;99.90;;;;;;5016455;28;20241;-86
2022/06/07 03:06:53;;;;;;;0.80;0.40;;;13.40;99.90;;;;;;5016223;28;20409;-82
2022/06/07 03:09:18;;;;;;;1.30;0.40;;;13.30;99.90;;;;;;5016381;28;20640;-83
2022/06/07 03:11:44;;;;;;;0.80;0.30;;;13.30;99.90;;;;;;5015893;28;20178;-84
2022/06/07 03:14:10;;;;;;;0.90;0.30;;;13.20;99.90;;;;;;5016088;28;20178;-83
2022/06/07 03:16:36;;;;;;;1.23;0.33;;;13.30;99.90;;;;;;5015961;28;20220;-82
2022/06/07 03:19:02;;;;;;;0.60;0.30;;;13.30;99.90;;;;;;5015923;28;20471;-83
2022/06/07 03:21:28;;;;;;;2.53;0.53;;;13.30;99.90;;;;;;5016138;28;20534;-88
2022/06/07 03:23:54;;;;;;;0.60;0.20;;;13.30;99.90;;;;;;5016255;28;20412;-82
2022/06/07 03:26:19;;;;;;;7.40;2.20;;;13.40;99.90;;;;;;5015647;28;20446;-82
2022/06/07 03:28:45;;;;;;;1.40;0.40;;;13.40;99.90;;;;;;5015866;28;20181;-84
2022/06/07 03:31:15;;;;;;;0.60;0.20;;;13.40;99.90;;;;;;5015674;28;20681;-89
2022/06/07 03:33:42;;;;;;;0.97;0.20;;;13.40;99.90;;;;;;5015900;28;20172;-83
2022/06/07 03:36:12;;;;;;;0.53;0.20;;;13.40;99.90;;;;;;5015092;28;20911;-83
2022/06/07 03:38:39;;;;;;;0.93;0.20;;;13.40;99.90;;;;;;5015594;28;20488;-82
2022/06/07 03:41:04;;;;;;;0.70;0.20;;;13.40;99.90;;;;;;5015268;28;20413;-85
2022/06/07 03:43:30;;;;;;;0.60;0.20;;;13.40;99.90;;;;;;5015629;28;20820;-85
2022/06/07 03:45:55;;;;;;;0.70;0.20;;;13.50;99.90;;;;;;5015588;28;20703;-83
2022/06/07 03:48:21;;;;;;;0.60;0.23;;;13.50;99.90;;;;;;5015643;28;20247;-84
2022/06/07 03:50:47;;;;;;;1.67;0.33;;;13.50;99.90;;;;;;5015329;28;20165;-83
2022/06/07 03:53:13;;;;;;;0.47;0.20;;;13.40;99.90;;;;;;5015454;28;20921;-83
2022/06/07 03:55:44;;;;;;;0.73;0.23;;;13.40;99.90;;;;;;5015065;28;20690;-83
2022/06/07 03:58:10;;;;;;;1.00;0.40;;;13.40;99.90;;;;;;5015541;28;20208;-83
2022/06/07 04:00:36;;;;;;;0.90;0.40;;;13.40;99.90;;;;;;4998114;28;20963;-83
2022/06/07 04:03:02;;;;;;;1.47;0.47;;;13.40;99.90;;;;;;5015456;28;20420;-83
2022/06/07 04:05:27;;;;;;;0.60;0.20;;;13.50;99.90;;;;;;5015254;28;20204;-84
2022/06/07 04:08:11;;;;;;;0.80;0.47;;;13.50;99.90;;;;;;5015399;28;20178;-83
2022/06/07 04:10:47;;;;;;;0.57;0.30;;;13.60;99.90;;;;;;5014972;28;20169;-83
2022/06/07 04:13:14;;;;;;;0.80;0.60;;;13.80;99.90;;;;;;5015517;28;20441;-83
2022/06/07 04:15:40;;;;;;;0.60;0.40;;;14.00;99.90;;;;;;5016011;28;20960;-84
2022/06/07 04:18:06;;;;;;;1.00;0.37;;;14.00;99.90;;;;;;5015465;28;20504;-85
2022/06/07 04:20:31;;;;;;;0.83;0.20;;;14.10;99.90;;;;;;5015419;28;20428;-83
2022/06/07 04:22:57;;;;;;;0.80;0.33;;;14.10;99.90;;;;;;5015686;28;20178;-84
2022/06/07 04:25:22;;;;;;;1.90;0.40;;;14.00;99.90;;;;;;5015125;28;20661;-83
2022/06/07 04:27:48;;;;;;;1.33;0.30;;;14.00;99.90;;;;;;5014773;28;20178;-87
2022/06/07 04:30:13;;;;;;;1.13;0.60;;;14.10;99.90;;;;;;5014554;28;20177;-84
2022/06/07 04:32:45;;;;;;;1.37;0.60;;;14.10;99.90;;;;;;5014713;28;20176;-84
2022/06/07 04:35:12;;;;;;;1.43;0.30;;;14.10;99.90;;;;;;5014880;28;20185;-86
2022/06/07 04:37:37;;;;;;;0.73;0.30;;;14.00;99.90;;;;;;5014908;28;20988;-85
2022/06/07 04:40:03;;;;;;;1.90;0.57;;;14.00;99.90;;;;;;5014727;28;20453;-83
2022/06/07 04:42:28;;;;;;;1.03;0.30;;;14.10;99.90;;;;;;5014208;28;20196;-85
2022/06/07 04:44:54;;;;;;;2.10;0.50;;;14.00;99.90;;;;;;5014579;28;20635;-83
2022/06/07 04:47:19;;;;;;;1.03;0.73;;;14.10;99.90;;;;;;5013866;28;20201;-83
2022/06/07 04:49:45;;;;;;;1.50;0.73;;;14.10;99.90;;;;;;5014286;28;20182;-86
2022/06/07 04:52:11;;;;;;;3.10;1.30;;;14.10;99.90;;;;;;4996723;28;20644;-85
2022/06/07 04:54:36;;;;;;;1.93;0.80;;;14.10;99.90;;;;;;4996619;28;20626;-82
2022/06/07 04:57:02;;;;;;;2.20;0.47;;;14.20;99.90;;;;;;5013700;28;20186;-85
2022/06/07 04:59:28;;;;;;;2.20;1.23;;;14.20;99.90;;;;;;5014049;28;20216;-82
2022/06/07 05:01:53;;;;;;;1.00;0.33;;;14.30;99.90;;;;;;5014134;28;20425;-84
2022/06/07 05:04:19;;;;;;;2.60;0.50;;;14.30;99.90;;;;;;4996486;28;20272;-84
2022/06/07 05:06:45;;;;;;;2.03;0.77;;;14.30;99.90;;;;;;5014110;28;20578;-86
2022/06/07 05:09:14;;;;;;;1.50;1.03;;;14.40;99.90;;;;;;5017343;28;20169;-84
2022/06/07 05:11:40;;;;;;;1.23;0.80;;;14.30;99.90;;;;;;4999197;28;20427;-86
2022/06/07 05:14:07;;;;;;;2.10;0.90;;;14.40;99.90;;;;;;5014065;28;20424;-85
2022/06/07 05:16:37;;;;;;;3.00;1.00;;;14.30;99.90;;;;;;5014872;28;20526;-88
2022/06/07 05:19:03;;;;;;;1.70;0.83;;;14.20;99.90;;;;;;4997688;28;20492;-84
2022/06/07 05:21:29;;;;;;;2.50;1.37;;;14.20;99.90;;;;;;5014926;28;20884;-85
2022/06/07 05:23:55;;;;;;;2.10;0.90;;;14.20;99.90;;;;;;5014126;28;20447;-86
2022/06/07 05:26:34;;;;;;;2.70;1.27;;;14.20;99.90;;;;;;5013768;28;20167;-85
2022/06/07 05:29:00;;;;;;;2.93;1.83;;;14.20;99.90;;;;;;5014451;28;20166;-83
2022/06/07 05:31:26;;;;;;;4.53;1.23;;;14.20;99.90;;;;;;4997482;28;20515;-83
2022/06/07 05:33:52;;;;;;;3.07;2.17;;;14.30;99.90;;;;;;5014803;28;20182;-84
2022/06/07 05:36:19;;;;;;;3.47;1.83;;;14.30;99.90;;;;;;4997291;28;20410;-84
2022/06/07 05:38:45;;;;;;;2.63;1.50;;;14.40;99.90;;;;;;5013563;28;20810;-86
2022/06/07 05:41:20;;;;;;;3.17;2.00;;;14.40;99.90;;;;;;5013292;28;20788;-84
2022/06/07 05:43:46;;;;;;;3.73;1.97;;;14.40;99.90;;;;;;4996014;28;20438;-84
2022/06/07 05:46:11;;;;;;;2.77;1.93;;;14.30;99.90;;;;;;5013347;28;20497;-86
2022/06/07 05:48:37;;;;;;;3.60;2.17;;;14.30;99.90;;;;;;5013442;28;20175;-85
2022/06/07 05:51:03;;;;;;;4.50;2.90;;;14.30;99.90;;;;;;5013387;28;20165;-82
2022/06/07 05:53:29;;;;;;;3.43;2.43;;;14.30;99.90;;;;;;5013621;28;20178;-84
2022/06/07 05:55:54;;;;;;;3.30;2.13;;;14.30;99.90;;;;;;4995488;28;20422;-83
2022/06/07 05:58:20;;;;;;;3.90;2.20;;;14.20;99.90;;;;;;5012996;28;20203;-83
2022/06/07 06:00:46;;;;;;;6.83;3.23;;;14.30;99.90;;;;;;5013212;28;20172;-82
2022/06/07 06:03:12;;;;;;;4.50;2.80;;;14.30;99.90;;;;;;5013202;28;20523;-82
2022/06/07 06:05:47;;;;;;;4.33;3.40;;;14.40;99.90;;;;;;5013138;28;20410;-84
2022/06/07 06:11:13;;;;;;;3.87;2.67;;;14.40;99.90;;;;;;5014684;28;20472;-83
2022/06/07 06:13:39;;;;;;;7.60;3.03;;;14.50;99.90;;;;;;5013668;28;20449;-82
2022/06/07 06:16:10;;;;;;;6.93;4.10;;;14.60;99.90;;;;;;5013082;28;20433;-84
2022/06/07 06:18:39;;;;;;;5.20;3.57;;;14.60;99.90;;;;;;5016783;28;20507;-84
2022/06/07 06:21:06;;;;;;;8.30;3.90;;;14.50;99.90;;;;;;5016857;28;20766;-82
2022/06/07 06:23:32;;;;;;;6.40;4.63;;;14.60;99.90;;;;;;5014162;28;20418;-82
2022/06/07 06:26:00;;;;;;;6.77;3.90;;;14.60;99.90;;;;;;5012901;28;20416;-87
2022/06/07 06:28:26;;;;;;;8.13;4.13;;;14.70;99.90;;;;;;5015604;28;20410;-84
2022/06/07 06:30:53;;;;;;;7.47;3.50;;;14.70;99.90;;;;;;5013566;28;20470;-86
2022/06/07 06:33:19;;;;;;;6.63;4.80;;;14.80;99.90;;;;;;4996839;28;20468;-84
2022/06/07 06:35:51;;;;;;;5.43;4.00;;;14.80;99.90;;;;;;5012765;28;20760;-84
2022/06/07 06:38:16;;;;;;;7.10;4.57;;;14.80;99.90;;;;;;5012779;28;20478;-84
2022/06/07 06:40:43;;;;;;;3.97;2.97;;;14.90;99.90;;;;;;5012311;28;20779;-84
2022/06/07 06:43:09;;;;;;;5.73;4.43;;;14.90;99.90;;;;;;5012786;28;20520;-83
2022/06/07 06:45:35;;;;;;;6.27;4.00;;;14.90;99.90;;;;;;5012767;28;20425;-86
2022/06/07 06:48:02;;;;;;;7.37;4.80;;;14.90;99.90;;;;;;4995309;28;20183;-85
2022/06/07 06:50:28;;;;;;;4.83;4.30;;;15.00;99.90;;;;;;5012787;28;20233;-84
2022/06/07 06:52:53;;;;;;;4.53;3.70;;;15.20;99.90;;;;;;4996733;28;20434;-83
2022/06/07 06:55:18;;;;;;;4.50;3.33;;;15.20;99.90;;;;;;5017520;28;20175;-84
2022/06/07 06:57:44;;;;;;;7.13;4.10;;;15.20;99.90;;;;;;4999451;28;20269;-88
2022/06/07 07:00:11;;;;;;;5.13;3.50;;;15.30;99.90;;;;;;5013188;28;20175;-86
2022/06/07 07:02:36;;;;;;;7.33;3.77;;;15.30;99.90;;;;;;4995600;28;20670;-85
2022/06/07 07:05:02;;;;;;;9.23;4.43;;;15.30;99.90;;;;;;4995319;28;20521;-87
2022/06/07 07:07:28;;;;;;;5.90;3.73;;;15.40;99.90;;;;;;5013122;28;20230;-84
2022/06/07 07:09:56;;;;;;;5.67;2.83;;;15.30;99.90;;;;;;5014571;28;20500;-84
2022/06/07 07:12:22;;;;;;;3.50;2.90;;;15.40;99.90;;;;;;5018323;28;20178;-84
2022/06/07 07:14:48;;;;;;;5.40;3.63;;;15.40;99.90;;;;;;4998888;28;20812;-86
2022/06/07 07:17:13;;;;;;;6.87;3.90;;;15.30;99.90;;;;;;5016203;28;20179;-85
2022/06/07 07:19:39;;;;;;;6.17;3.27;;;15.50;99.90;;;;;;5016270;28;20829;-85
2022/06/07 07:22:05;;;;;;;5.23;3.17;;;15.60;99.90;;;;;;5015945;28;20182;-84
2022/06/07 07:24:30;;;;;;;4.87;2.50;;;15.70;99.90;;;;;;5016127;28;20277;-84
2022/06/07 07:26:58;;;;;;;6.53;3.33;;;15.70;94.00;;;;;;5015486;28;20258;-84
2022/06/07 07:29:24;;;;;;;5.30;3.20;;;15.70;65.70;;;;;;5015672;28;20172;-84
2022/06/07 07:31:50;;;;;;;8.57;3.77;;;15.70;99.90;;;;;;4997973;28;20474;-83
2022/06/07 07:34:17;;;;;;;4.30;2.70;;;15.60;75.60;;;;;;4997859;28;20430;-84
2022/06/07 07:36:46;;;;;;;4.50;2.60;;;15.70;97.80;;;;;;4998227;28;20885;-84
2022/06/07 07:39:12;;;;;;;5.47;3.00;;;15.80;28.40;;;;;;5017868;28;21005;-84
2022/06/07 07:41:39;;;;;;;5.17;2.33;;;15.80;1.00;;;;;;5040156;28;20508;-84
2022/06/07 07:44:09;;;;;;;3.47;2.37;;;15.90;1.00;;;;;;5035263;28;20422;-87
2022/06/07 07:46:36;;;;;;;4.30;2.43;;;15.90;1.00;;;;;;5035330;28;20437;-83
2022/06/07 07:49:03;;;;;;;4.40;3.03;;;16.00;1.00;;;;;;5035022;28;20515;-86
2022/06/07 07:51:31;;;;;;;5.83;3.00;;;15.90;1.00;;;;;;5035197;28;20419;-87
2022/06/07 07:53:59;;;;;;;6.73;2.90;;;16.00;1.00;;;;;;5017415;28;20433;-82
2022/06/07 07:56:25;;;;;;;2.60;2.07;;;16.10;1.00;;;;;;5034364;28;20927;-86
2022/06/07 07:58:52;;;;;;;3.47;1.90;;;16.10;1.00;;;;;;5034737;28;20512;-84
2022/06/07 08:01:21;;;;;;;4.27;2.00;;;16.20;1.00;;;;;;5034858;28;20413;-84
2022/06/07 08:03:48;;;;;;;4.57;2.00;;;16.30;1.00;;;;;;5032935;28;20931;-82
2022/06/07 08:06:18;;;;;;;2.70;1.50;;;16.20;1.00;;;;;;5017373;28;20449;-82
2022/06/07 08:08:48;;;;;;;3.97;1.00;;;16.20;1.00;;;;;;5015854;28;20434;-84
2022/06/07 08:11:16;;;;;;;2.87;1.97;;;16.10;1.00;;;;;;5014741;28;20823;-82
2022/06/07 08:13:42;;;;;;;3.40;2.30;;;16.20;1.00;;;;;;5014843;28;20422;-83
2022/06/07 08:16:12;;;;;;;4.23;1.80;;;16.40;1.00;;;;;;5014756;28;20995;-82
2022/06/07 08:18:39;;;;;;;2.63;1.33;;;16.40;1.00;;;;;;5014607;28;20478;-82
2022/06/07 08:21:08;;;;;;;2.73;1.80;;;16.50;1.00;;;;;;5017175;28;20472;-84
2022/06/07 08:23:34;;;;;;;4.50;1.30;;;16.50;1.00;;;;;;5018724;28;20450;-82
2022/06/07 08:26:04;;;;;;;4.33;2.10;;;16.60;1.00;;;;;;5018031;28;20777;-83
2022/06/07 08:28:29;;;;;;;3.57;1.63;;;16.60;1.00;;;;;;5016558;28;20420;-81
2022/06/07 08:30:55;;;;;;;2.17;1.60;;;16.60;1.00;;;;;;5016982;28;20978;-83
2022/06/07 08:38:57;;;;;;;5.00;1.60;;;16.70;1.00;;;;;;5014670;28;20474;-82
2022/06/07 08:41:33;;;;;;;3.10;1.40;;;16.70;1.00;;;;;;5013939;28;20435;-83
2022/06/07 08:44:11;;;;;;;3.80;1.70;;;16.90;1.00;;;;;;5014356;28;20415;-85
2022/06/07 08:46:38;;;;;;;1.63;0.90;;;17.00;1.00;;;;;;4996673;28;20426;-83
2022/06/07 08:49:07;;;;;;;3.50;1.00;;;17.20;1.00;;;;;;5014266;28;20413;-84
2022/06/07 08:52:12;;;;;;;2.47;1.07;;;17.30;99.90;;;;;;5014063;28;20971;-84
2022/06/07 08:54:41;;;;;;;2.53;1.67;;;17.30;99.90;;;;;;4983601;28;20441;-86
2022/06/07 08:57:19;;;;;;;2.80;1.30;;;17.40;1.00;;;;;;5003783;28;20432;-84
2022/06/07 08:59:48;;;;;;;2.23;1.17;;;17.50;16.20;;;;;;5015808;28;20939;-83
2022/06/07 09:02:57;;;;;;;3.60;1.70;;;17.60;99.90;;;;;;5033382;28;20409;-86
2022/06/07 09:05:25;;;;;;;3.30;1.47;;;17.60;36.20;;;;;;5033440;28;20421;-84
2022/06/07 09:07:54;;;;;;;2.97;1.07;;;17.90;1.00;;;;;;5033269;28;20428;-86
2022/06/07 09:13:20;;;;;;;2.93;1.20;;;18.00;51.40;;;;;;5033185;28;20463;-86
2022/06/07 09:15:49;;;;;;;4.57;1.90;;;18.30;99.90;;;;;;5031944;28;20918;-85
2022/06/07 09:18:16;;;;;;;1.43;1.00;;;18.70;1.00;;;;;;5031982;28;20969;-84
2022/06/07 09:20:45;;;;;;;4.10;1.50;;;19.00;1.00;;;;;;5033089;28;20493;-84
2022/06/07 09:23:30;;;;;;;2.47;1.13;;;18.80;1.00;;;;;;5015630;28;20431;-85
2022/06/07 09:26:11;;;;;;;2.33;1.17;;;18.60;1.00;;;;;;5032742;28;20412;-87
2022/06/07 09:28:36;;;;;;;1.80;0.90;;;18.20;99.90;;;;;;5013437;28;20984;-85
2022/06/07 09:31:13;;;;;;;2.87;1.33;;;17.90;9.50;;;;;;5014368;28;20574;-89
2022/06/07 09:34:02;;;;;;;3.00;1.57;;;17.70;40.50;;;;;;5015461;28;20297;-90
2022/06/07 09:36:35;;;;;;;3.30;0.80;;;17.60;25.30;;;;;;5010703;28;20440;-89
2022/06/07 09:39:07;;;;;;;3.10;1.37;;;17.70;99.90;;;;;;5033562;28;20465;-86
2022/06/07 09:41:43;;;;;;;3.97;1.17;;;17.70;1.00;;;;;;5032846;28;20478;-85
2022/06/07 09:44:25;;;;;;;2.20;0.90;;;17.60;1.00;;;;;;5033151;28;20443;-87
2022/06/07 09:47:03;;;;;;;1.77;1.13;;;17.40;1.00;;;;;;5033784;28;20886;-88
2022/06/07 09:49:35;;;;;;;1.17;0.80;;;17.30;1.00;;;;;;5015983;28;20424;-91
2022/06/07 09:52:11;;;;;;;1.37;0.90;;;17.30;99.90;;;;;;5032141;28;20420;-88
2022/06/07 09:54:41;;;;;;;2.30;0.67;;;17.20;99.90;;;;;;5014444;28;20566;-89
2022/06/07 09:57:15;;;;;;;1.70;1.20;;;17.20;99.90;;;;;;5015453;28;20416;-91
2022/06/07 10:00:26;;;;;;;2.70;1.23;;;17.10;99.90;;;;;;5015606;28;20435;-88
2022/06/07 10:03:16;;;;;;;3.00;1.60;;;17.00;1.00;;;;;;5028995;28;20429;-90
2022/06/07 10:05:47;;;;;;;2.47;1.43;;;17.00;99.90;;;;;;5014416;28;20421;-87
2022/06/07 10:08:36;;;;;;;3.10;1.60;;;17.10;99.90;;;;;;5031609;28;20412;-87
2022/06/07 10:11:38;;;;;;;2.50;1.37;;;17.20;1.00;;;;;;5013990;28;20419;-86
2022/06/07 10:14:09;;;;;;;2.70;1.13;;;17.60;99.90;;;;;;4999976;28;20428;-86
2022/06/07 10:16:35;;;;;;;1.73;1.27;;;18.60;98.30;;;;;;5031773;28;20757;-87
2022/06/07 10:19:14;;;;;;;5.80;2.13;;;20.30;1.00;;;;;;5031537;28;20466;-86
2022/06/07 10:21:54;;;;;;;3.70;1.87;;;20.10;99.90;;;;;;5033268;28;20637;-87
2022/06/07 10:24:42;;;;;;;2.70;2.00;;;22.90;99.90;;;;;;5032527;28;20412;-86
2022/06/07 10:27:30;;;;;;;4.33;1.53;;;23.80;99.90;;;;;;5014975;28;20435;-85
2022/06/07 10:30:17;;;;;;;2.37;1.33;;;25.10;99.90;;;;;;5032527;28;20413;-87
2022/06/07 10:32:59;;;;;;;3.47;1.67;;;24.80;99.90;;;;;;5032683;28;20921;-83
2022/06/07 10:35:41;;;;;;;2.33;2.00;;;25.10;99.90;;;;;;5014908;28;20475;-84
2022/06/07 10:38:50;;;;;;;3.07;2.80;;;24.60;99.90;;;;;;5032752;28;20452;-86
2022/06/07 10:41:32;;;;;;;2.80;2.60;;;24.00;99.90;;;;;;5014806;28;20933;-85
2022/06/07 10:44:19;;;;;;;4.90;2.50;;;23.00;99.90;;;;;;5032770;28;20748;-82
2022/06/07 10:46:46;;;;;;;4.00;2.47;;;22.70;99.90;;;;;;5035375;28;20429;-84
2022/06/07 10:49:33;;;;;;;3.50;3.00;;;22.30;99.90;;;;;;5036298;28;20416;-86
2022/06/07 10:52:21;;;;;;;3.40;2.50;;;22.00;99.90;;;;;;5036391;28;20413;-84
2022/06/07 10:55:06;;;;;;;2.30;2.00;;;21.70;99.90;;;;;;5018070;28;20455;-85
2022/06/07 10:57:40;;;;;;;3.43;2.70;;;22.60;99.90;;;;;;5018454;28;20511;-82
2022/06/07 11:00:33;;;;;;;3.73;2.80;;;22.00;99.90;;;;;;5018309;28;20497;-83
2022/06/07 11:03:18;;;;;;;2.97;2.30;;;23.30;99.90;;;;;;5018313;28;20425;-82
2022/06/07 11:11:35;;;;;;;4.27;2.80;;;21.40;99.90;;;;;;5035895;28;20467;-82
2022/06/07 11:14:26;;;;;;;3.77;2.80;;;20.90;99.90;;;;;;5035868;28;20445;-83
2022/06/07 11:17:12;;;;;;;4.80;2.47;;;20.60;99.90;;;;;;5035334;28;20424;-83
2022/06/07 11:19:38;;;;;;;3.90;2.23;;;21.20;99.90;;;;;;5035764;28;20555;-84
2022/06/07 11:22:13;;;;;;;3.90;2.60;;;21.40;99.90;;;;;;5035793;28;20855;-82
2022/06/07 11:24:54;;;;;;;5.43;2.63;;;20.80;99.90;;;;;;5035390;28;20181;-84
2022/06/07 11:27:22;;;;;;;3.40;2.30;;;20.40;99.90;;;;;;5035465;28;20416;-83
2022/06/07 11:30:08;;;;;;;3.63;2.27;;;19.90;99.90;;;;;;5035572;28;20418;-83
2022/06/07 11:32:48;;;;;;;4.63;2.97;;;19.40;99.90;;;;;;5035469;28;20882;-85
2022/06/07 11:35:46;;;;;;;6.97;3.33;;;18.90;99.90;;;;;;5035559;28;20412;-83
2022/06/07 11:38:17;;;;;;;2.90;2.33;;;18.90;1.00;;;;;;5035338;28;20457;-85
2022/06/07 11:40:44;;;;;;;2.97;2.27;;;19.10;1.00;;;;;;5035105;28;20439;-83
2022/06/07 11:43:47;;;;;;;4.07;2.30;;;19.00;1.00;;;;;;5035451;28;20401;-83
2022/06/07 11:46:51;;;;;;;3.80;3.40;;;18.80;99.90;;;;;;5035331;28;20479;-83
2022/06/07 11:49:23;;;;;;;4.67;2.70;;;18.70;99.90;;;;;;5024363;28;20455;-83
2022/06/07 11:52:11;;;;;;;6.07;3.73;;;18.90;99.90;;;;;;5035214;28;20475;-84
2022/06/07 11:54:46;;;;;;;5.20;3.70;;;19.20;1.00;;;;;;5034838;28;20406;-83
2022/06/07 11:57:28;;;;;;;5.20;3.57;;;19.80;99.90;;;;;;5034762;28;20413;-83
2022/06/07 12:00:19;;;;;;;3.80;3.30;;;19.70;99.90;;;;;;5034978;28;20425;-83
2022/06/07 12:03:08;;;;;;;6.20;4.93;;;19.80;99.90;;;;;;5034736;28;20480;-82
2022/06/07 12:05:49;;;;;;;6.17;4.23;;;19.20;99.90;;;;;;5035148;28;20429;-84
2022/06/07 12:08:47;;;;;;;5.03;3.33;;;18.80;1.00;;;;;;5017551;28;20413;-85
2022/06/07 12:11:21;;;;;;;5.33;4.20;;;18.50;1.00;;;;;;5034818;28;20514;-86
2022/06/07 12:14:10;;;;;;;5.93;4.50;;;18.40;1.00;;;;;;5017301;28;20757;-84
2022/06/07 12:16:51;;;;;;;6.17;4.10;;;18.10;1.00;;;;;;4996304;28;21000;-85
2022/06/07 12:19:24;;;;;;;5.83;4.63;;;18.00;99.90;;;;;;5034982;28;20475;-85
2022/06/07 12:22:12;;;;;;;6.33;4.37;;;18.40;99.90;;;;;;5035067;28;20426;-85
2022/06/07 12:24:44;;;;;;;7.83;4.67;;;18.60;1.00;;;;;;5034700;28;20453;-84
2022/06/07 12:27:35;;;;;;;8.60;5.17;;;18.60;99.90;;;;;;5034924;28;20415;-84
2022/06/07 12:30:19;;;;;;;7.70;5.70;;;18.30;99.90;;;;;;5034722;28;20400;-84
2022/06/07 12:32:45;;;;;;;5.43;4.77;;;18.40;1.00;;;;;;5016960;28;20928;-84
2022/06/07 12:35:24;;;;;;;5.60;4.90;;;18.70;99.90;;;;;;5034448;28;20415;-85
2022/06/07 12:37:54;;;;;;;5.70;4.77;;;18.60;99.90;;;;;;5016584;28;20239;-83
2022/06/07 12:40:45;;;;;;;6.30;4.77;;;18.70;1.00;;;;;;5033966;28;20842;-83
2022/06/07 12:43:20;;;;;;;6.10;5.50;;;18.80;94.10;;;;;;5034166;28;20507;-83
2022/06/07 12:45:55;;;;;;;9.00;5.33;;;18.90;99.90;;;;;;5034085;28;20443;-83
2022/06/07 12:48:20;;;;;;;6.73;5.70;;;19.20;37.80;;;;;;5034027;28;20408;-83
2022/06/07 12:50:47;;;;;;;6.30;5.67;;;19.30;1.00;;;;;;5033827;28;20432;-85
2022/06/07 12:53:25;;;;;;;5.03;4.53;;;19.00;1.00;;;;;;5033912;28;20638;-85
2022/06/07 12:56:11;;;;;;;5.27;4.20;;;19.20;99.90;;;;;;5015631;28;20514;-83
2022/06/07 12:58:49;;;;;;;5.80;5.20;;;19.10;99.90;;;;;;5033842;28;20472;-83
2022/06/07 13:01:37;;;;;;;6.80;5.13;;;18.50;99.90;;;;;;5033875;28;20451;-84
2022/06/07 13:04:30;;;;;;;6.77;6.17;;;18.30;99.90;;;;;;5033694;28;20416;-84
2022/06/07 13:07:09;;;;;;;7.73;6.97;;;18.00;1.00;;;;;;5033799;28;20436;-83
2022/06/07 13:09:35;;;;;;;5.93;5.33;;;17.90;1.00;;;;;;5032584;28;20427;-84
2022/06/07 13:12:03;;;;;;;7.70;6.20;;;17.80;99.90;;;;;;5033530;28;20415;-83
2022/06/07 13:14:28;;;;;;;8.13;6.97;;;17.80;99.90;;;;;;5033558;28;20469;-84
2022/06/07 13:16:54;;;;;;;8.73;5.93;;;17.80;1.00;;;;;;5033285;28;20414;-83
2022/06/07 13:19:27;;;;;;;8.57;6.40;;;17.90;99.90;;;;;;5033413;28;20208;-83
2022/06/07 13:21:59;;;;;;;11.20;5.57;;;18.40;99.90;;;;;;5015687;28;20179;-83
2022/06/07 13:24:39;;;;;;;8.73;7.90;;;18.80;1.00;;;;;;5032959;28;20490;-83
2022/06/07 13:27:23;;;;;;;7.50;6.13;;;18.90;99.90;;;;;;5033242;28;20832;-83
2022/06/07 13:29:49;;;;;;;7.57;6.77;;;18.90;99.90;;;;;;5033241;28;20420;-83
2022/06/07 13:32:28;;;;;;;7.40;5.90;;;18.90;99.90;;;;;;5033043;28;20466;-88